Time;durP1;ratioP1;P1;durP2;ratioP2;P2;SDS_P1;SDS_P2;PMS_P1;PMS_P2;Temp;Humidity;BMP_temperature;BMP_pressure;BME280_temperature;BME280_humidity;BME280_pressure;Samples;Min_cycle;Max_cycle;Signal;HPM_P1;HPM_P2
2022/03/06 00:01:33;;;;;;;;;;;;;;;;;;5008756;28;20419;-51
2022/03/06 00:03:59;;;;;;;;;;;;;;;;;;5005391;28;19928;-52
2022/03/06 00:06:24;;;;;;;;;;;;;;;;;;5007020;28;19944;-47
2022/03/06 00:08:49;;;;;;;;;;;;;;;;;;5010232;28;19925;-48
2022/03/06 00:11:14;;;;;;;;;;;;;;;;;;5010783;28;19921;-47
2022/03/06 00:13:39;;;;;;;;;;;;;;;;;;5008455;28;19925;-48
2022/03/06 00:16:04;;;;;;;;;;;;;;;;;;5009961;28;20605;-47
2022/03/06 00:18:30;;;;;;;;;;;;;;;;;;5005732;28;19921;-46
2022/03/06 00:20:55;;;;;;;;;;;;;;;;;;5009958;28;19913;-44
2022/03/06 00:23:20;;;;;;;;;;;;;;;;;;5009464;28;19960;-50
2022/03/06 00:25:46;;;;;;;;;;;;;;;;;;5010140;28;20624;-48
2022/03/06 00:28:11;;;;;;;;;;;;;;;;;;5009214;28;19925;-47
2022/03/06 00:30:36;;;;;;;;;;;;;;;;;;5008382;28;20645;-45
2022/03/06 00:33:01;;;;;;;;;;;;;;;;;;5007823;28;19921;-49
2022/03/06 00:35:28;;;;;;;;;;;;;;;;;;5009319;28;19940;-49
2022/03/06 00:37:53;;;;;;;;;;;;;;;;;;5008444;28;20009;-52
2022/03/06 00:40:18;;;;;;;;;;;;;;;;;;4993837;28;19944;-52
2022/03/06 00:42:44;;;;;;;;;;;;;;;;;;5014466;28;19929;-48
2022/03/06 00:45:09;;;;;;;;;;;;;;;;;;5010936;28;20295;-49
2022/03/06 00:47:34;;;;;;;;;;;;;;;;;;5010529;28;19952;-48
2022/03/06 00:50:02;;;;;;;;;;;;;;;;;;5010375;28;19996;-49
2022/03/06 00:52:27;;;;;;;;;;;;;;;;;;5011044;28;19921;-50
2022/03/06 00:54:52;;;;;;;;;;;;;;;;;;5012473;28;20506;-46
2022/03/06 00:57:17;;;;;;;;;;;;;;;;;;5010454;28;19925;-45
2022/03/06 00:59:42;;;;;;;;;;;;;;;;;;5008026;28;20000;-46
2022/03/06 01:02:07;;;;;;;;;;;;;;;;;;5006989;28;20455;-45
2022/03/06 01:04:33;;;;;;;;;;;;;;;;;;5009313;28;19928;-49
2022/03/06 01:06:58;;;;;;;;;;;;;;;;;;5007396;28;19921;-46
2022/03/06 01:09:23;;;;;;;;;;;;;;;;;;5007518;28;19976;-49
2022/03/06 01:11:48;;;;;;;;;;;;;;;;;;5008937;28;19921;-45
2022/03/06 01:14:13;;;;;;;;;;;;;;;;;;5012242;28;19921;-51
2022/03/06 01:16:38;;;;;;;;;;;;;;;;;;5006887;28;20337;-47
2022/03/06 01:19:04;;;;;;;;;;;;;;;;;;5011433;28;19947;-49
2022/03/06 01:21:29;;;;;;;;;;;;;;;;;;5011674;28;19972;-50
2022/03/06 01:23:54;;;;;;;;;;;;;;;;;;5007116;28;19972;-51
2022/03/06 01:26:19;;;;;;;;;;;;;;;;;;5010075;28;20538;-49
2022/03/06 01:28:44;;;;;;;;;;;;;;;;;;5012763;28;19932;-51
2022/03/06 01:31:09;;;;;;;;;;;;;;;;;;5006900;28;19929;-52
2022/03/06 01:33:34;;;;;;;;;;;;;;;;;;5010581;28;19928;-50
2022/03/06 01:35:59;;;;;;;;;;;;;;;;;;5010466;28;20152;-47
2022/03/06 01:38:25;;;;;;;;;;;;;;;;;;5012926;28;19925;-51
2022/03/06 01:40:50;;;;;;;;;;;;;;;;;;5011579;28;20424;-49
2022/03/06 01:43:15;;;;;;;;;;;;;;;;;;5014043;28;20000;-47
2022/03/06 01:45:40;;;;;;;;;;;;;;;;;;5011586;28;19987;-49
2022/03/06 01:48:08;;;;;;;;;;;;;;;;;;5012697;28;19925;-48
2022/03/06 01:50:33;;;;;;;;;;;;;;;;;;5013494;28;19928;-48
2022/03/06 01:52:58;;;;;;;;;;;;;;;;;;5013252;28;20680;-47
2022/03/06 01:55:24;;;;;;;;;;;;;;;;;;5013485;28;20416;-48
2022/03/06 01:57:49;;;;;;;;;;;;;;;;;;5011785;28;19921;-48
2022/03/06 02:00:14;;;;;;;;;;;;;;;;;;5015367;28;19947;-48
2022/03/06 02:02:40;;;;;;;;;;;;;;;;;;5014697;28;19917;-47
2022/03/06 02:05:05;;;;;;;;;;;;;;;;;;5013695;28;19929;-45
2022/03/06 02:07:30;;;;;;;;;;;;;;;;;;5013207;28;19925;-48
2022/03/06 02:09:55;;;;;;;;;;;;;;;;;;5013828;28;19984;-49
2022/03/06 02:12:23;;;;;;;;;;;;;;;;;;5017430;28;20361;-45
2022/03/06 02:14:48;;;;;;;;;;;;;;;;;;5014336;28;19921;-47
2022/03/06 02:17:14;;;;;;;;;;;;;;;;;;5015038;28;20473;-49
2022/03/06 02:19:39;;;;;;;;;;;;;;;;;;5011393;28;20046;-48
2022/03/06 02:22:04;;;;;;;;;;;;;;;;;;5011773;28;19921;-51
2022/03/06 02:24:29;;;;;;;;;;;;;;;;;;5012475;28;19971;-48
2022/03/06 02:26:54;;;;;;;;;;;;;;;;;;5011939;28;19921;-46
2022/03/06 02:29:19;;;;;;;;;;;;;;;;;;5014123;28;20374;-48
2022/03/06 02:31:44;;;;;;;;;;;;;;;;;;5015400;28;19927;-49
2022/03/06 02:34:10;;;;;;;;;;;;;;;;;;5012100;28;19968;-48
2022/03/06 02:36:35;;;;;;;;;;;;;;;;;;5013316;28;20439;-49
2022/03/06 02:39:00;;;;;;;;;;;;;;;;;;5016009;28;19960;-46
2022/03/06 02:41:25;;;;;;;;;;;;;;;;;;5012752;28;20478;-44
2022/03/06 02:43:50;;;;;;;;;;;;;;;;;;5009026;28;20395;-48
2022/03/06 02:46:15;;;;;;;;;;;;;;;;;;5012042;28;19960;-44
2022/03/06 02:48:41;;;;;;;;;;;;;;;;;;5009299;28;20035;-48
2022/03/06 02:51:06;;;;;;;;;;;;;;;;;;5010259;28;20296;-47
2022/03/06 02:53:31;;;;;;;;;;;;;;;;;;5011012;28;19921;-49
2022/03/06 02:55:56;;;;;;;;;;;;;;;;;;5010064;28;19955;-46
2022/03/06 02:58:21;;;;;;;;;;;;;;;;;;5012779;28;19931;-47
2022/03/06 03:00:46;;;;;;;;;;;;;;;;;;5012395;28;20470;-50
2022/03/06 03:03:12;;;;;;;;;;;;;;;;;;5015888;28;20639;-51
2022/03/06 03:05:37;;;;;;;;;;;;;;;;;;5010541;28;21483;-45
2022/03/06 03:08:02;;;;;;;;;;;;;;;;;;5014061;28;19929;-46
2022/03/06 03:10:27;;;;;;;;;;;;;;;;;;5013130;28;19921;-46
2022/03/06 03:12:52;;;;;;;;;;;;;;;;;;5012877;28;19932;-49
2022/03/06 03:15:17;;;;;;;;;;;;;;;;;;5016002;28;20331;-49
2022/03/06 03:17:43;;;;;;;;;;;;;;;;;;5014066;28;19917;-51
2022/03/06 03:20:08;;;;;;;;;;;;;;;;;;5013159;28;20024;-51
2022/03/06 03:22:33;;;;;;;;;;;;;;;;;;5012207;28;19921;-49
2022/03/06 03:24:58;;;;;;;;;;;;;;;;;;5010931;28;20580;-51
2022/03/06 03:27:23;;;;;;;;;;;;;;;;;;5014062;28;19922;-48
2022/03/06 03:29:49;;;;;;;;;;;;;;;;;;5013446;28;19921;-48
2022/03/06 03:32:14;;;;;;;;;;;;;;;;;;5012041;28;20377;-46
2022/03/06 03:34:39;;;;;;;;;;;;;;;;;;5007141;28;20789;-51
2022/03/06 03:37:04;;;;;;;;;;;;;;;;;;5007349;28;20007;-46
2022/03/06 03:39:29;;;;;;;;;;;;;;;;;;5006820;28;19921;-49
2022/03/06 03:41:55;;;;;;;;;;;;;;;;;;5012198;28;19975;-51
2022/03/06 03:44:20;;;;;;;;;;;;;;;;;;5012086;28;20340;-49
2022/03/06 03:46:45;;;;;;;;;;;;;;;;;;5011506;28;19917;-46
2022/03/06 03:49:11;;;;;;;;;;;;;;;;;;5009630;28;20318;-46
2022/03/06 03:51:36;;;;;;;;;;;;;;;;;;5008429;28;19921;-49
2022/03/06 03:54:01;;;;;;;;;;;;;;;;;;5010468;28;19937;-50
2022/03/06 03:56:26;;;;;;;;;;;;;;;;;;5013451;28;20027;-51
2022/03/06 03:58:51;;;;;;;;;;;;;;;;;;5009163;28;19941;-46
2022/03/06 04:01:17;;;;;;;;;;;;;;;;;;5010422;28;19933;-51
2022/03/06 04:03:42;;;;;;;;;;;;;;;;;;5007877;28;19922;-45
2022/03/06 04:06:07;;;;;;;;;;;;;;;;;;5007846;28;19921;-46
2022/03/06 04:08:32;;;;;;;;;;;;;;;;;;5008437;28;19960;-47
2022/03/06 04:10:59;;;;;;;;;;;;;;;;;;5006492;28;20592;-48
2022/03/06 04:13:24;;;;;;;;;;;;;;;;;;5011608;28;19921;-48
2022/03/06 04:15:49;;;;;;;;;;;;;;;;;;5009176;28;19921;-51
2022/03/06 04:18:14;;;;;;;;;;;;;;;;;;5008484;28;19920;-47
2022/03/06 04:20:40;;;;;;;;;;;;;;;;;;5006494;28;20011;-52
2022/03/06 04:23:05;;;;;;;;;;;;;;;;;;5008378;28;19926;-46
2022/03/06 04:25:30;;;;;;;;;;;;;;;;;;5013127;28;19922;-46
2022/03/06 04:27:55;;;;;;;;;;;;;;;;;;5011506;28;20011;-45
2022/03/06 04:30:20;;;;;;;;;;;;;;;;;;5008394;28;19921;-43
2022/03/06 04:32:45;;;;;;;;;;;;;;;;;;5014761;28;20108;-44
2022/03/06 04:35:11;;;;;;;;;;;;;;;;;;5012296;28;20404;-45
2022/03/06 04:37:36;;;;;;;;;;;;;;;;;;5009695;28;19946;-43
2022/03/06 04:40:01;;;;;;;;;;;;;;;;;;5012374;28;19921;-48
2022/03/06 04:42:26;;;;;;;;;;;;;;;;;;5009769;28;20312;-46
2022/03/06 04:44:51;;;;;;;;;;;;;;;;;;5010045;28;19929;-45
2022/03/06 04:47:17;;;;;;;;;;;;;;;;;;5007846;28;20557;-44
2022/03/06 04:49:42;;;;;;;;;;;;;;;;;;5008420;28;19925;-46
2022/03/06 04:52:07;;;;;;;;;;;;;;;;;;5013982;28;19983;-48
2022/03/06 04:54:32;;;;;;;;;;;;;;;;;;5015254;28;20020;-48
2022/03/06 04:56:57;;;;;;;;;;;;;;;;;;5011911;28;20234;-46
2022/03/06 04:59:23;;;;;;;;;;;;;;;;;;5012809;28;19921;-47
2022/03/06 05:01:48;;;;;;;;;;;;;;;;;;5010499;28;19965;-46
2022/03/06 05:04:13;;;;;;;;;;;;;;;;;;5006239;28;19921;-49
2022/03/06 05:06:38;;;;;;;;;;;;;;;;;;5013006;28;20249;-46
2022/03/06 05:09:03;;;;;;;;;;;;;;;;;;5009273;28;19925;-48
2022/03/06 05:11:28;;;;;;;;;;;;;;;;;;5008562;28;19991;-50
2022/03/06 05:13:54;;;;;;;;;;;;;;;;;;5012315;28;19925;-49
2022/03/06 05:16:19;;;;;;;;;;;;;;;;;;5018141;28;19928;-47
2022/03/06 05:18:44;;;;;;;;;;;;;;;;;;5014914;28;19925;-49
2022/03/06 05:21:09;;;;;;;;;;;;;;;;;;5016760;28;19920;-47
2022/03/06 05:23:34;;;;;;;;;;;;;;;;;;5020327;28;20641;-46
2022/03/06 05:25:59;;;;;;;;;;;;;;;;;;5032415;28;19921;-49
2022/03/06 05:28:27;;;;;;;;;;;;;;;;;;5020223;28;19925;-47
2022/03/06 05:30:52;;;;;;;;;;;;;;;;;;5015887;28;19956;-45
2022/03/06 05:33:17;;;;;;;;;;;;;;;;;;5016047;28;19972;-47
2022/03/06 05:35:42;;;;;;;;;;;;;;;;;;5016188;28;19996;-49
2022/03/06 05:38:07;;;;;;;;;;;;;;;;;;5017574;28;19923;-44
2022/03/06 05:40:32;;;;;;;;;;;;;;;;;;5016195;28;19921;-45
2022/03/06 05:42:57;;;;;;;;;;;;;;;;;;5020267;28;20356;-46
2022/03/06 05:45:23;;;;;;;;;;;;;;;;;;5017374;28;19990;-49
2022/03/06 05:47:48;;;;;;;;;;;;;;;;;;5021725;28;19929;-51
2022/03/06 05:50:13;;;;;;;;;;;;;;;;;;5020025;28;20476;-47
2022/03/06 05:52:39;;;;;;;;;;;;;;;;;;5017086;28;19929;-47
2022/03/06 05:55:05;;;;;;;;;;;;;;;;;;5020290;28;19922;-48
2022/03/06 05:57:30;;;;;;;;;;;;;;;;;;5017948;28;19928;-48
2022/03/06 05:59:55;;;;;;;;;;;;;;;;;;5016760;28;20408;-48
2022/03/06 06:02:23;;;;;;;;;;;;;;;;;;5015448;28;21418;-50
2022/03/06 06:04:48;;;;;;;;;;;;;;;;;;5021085;28;19921;-45
2022/03/06 06:07:14;;;;;;;;;;;;;;;;;;5020319;28;19921;-46
2022/03/06 06:09:39;;;;;;;;;;;;;;;;;;5017475;28;19921;-48
2022/03/06 06:12:04;;;;;;;;;;;;;;;;;;5018260;28;20633;-49
2022/03/06 06:14:29;;;;;;;;;;;;;;;;;;5017258;28;20027;-47
2022/03/06 06:16:54;;;;;;;;;;;;;;;;;;5018097;28;20303;-49
2022/03/06 06:19:19;;;;;;;;;;;;;;;;;;5016901;28;19931;-48
2022/03/06 06:21:45;;;;;;;;;;;;;;;;;;5020012;28;20012;-49
2022/03/06 06:24:10;;;;;;;;;;;;;;;;;;5012456;28;19921;-49
2022/03/06 06:26:35;;;;;;;;;;;;;;;;;;5014111;28;19932;-50
2022/03/06 06:29:00;;;;;;;;;;;;;;;;;;5020284;28;19926;-45
2022/03/06 06:31:25;;;;;;;;;;;;;;;;;;5015108;28;20456;-51
2022/03/06 06:33:50;;;;;;;;;;;;;;;;;;5015659;28;20018;-48
2022/03/06 06:36:16;;;;;;;;;;;;;;;;;;5013769;28;19921;-47
2022/03/06 06:38:41;;;;;;;;;;;;;;;;;;5018591;28;19932;-47
2022/03/06 06:41:06;;;;;;;;;;;;;;;;;;5017228;28;20311;-50
2022/03/06 06:43:31;;;;;;;;;;;;;;;;;;5014600;28;20591;-47
2022/03/06 06:45:56;;;;;;;;;;;;;;;;;;5014814;28;19921;-51
2022/03/06 06:48:21;;;;;;;;;;;;;;;;;;5016127;28;19971;-47
2022/03/06 06:50:47;;;;;;;;;;;;;;;;;;5010271;28;20401;-49
2022/03/06 06:53:12;;;;;;;;;;;;;;;;;;5012399;28;19917;-48
2022/03/06 06:55:37;;;;;;;;;;;;;;;;;;5016615;28;20566;-47
2022/03/06 06:58:02;;;;;;;;;;;;;;;;;;5013621;28;19948;-50
2022/03/06 07:00:27;;;;;;;;;;;;;;;;;;5014912;28;19978;-45
2022/03/06 07:02:52;;;;;;;;;;;;;;;;;;5015894;28;20487;-47
2022/03/06 07:05:17;;;;;;;;;;;;;;;;;;5015098;28;19925;-46
2022/03/06 07:07:43;;;;;;;;;;;;;;;;;;5018217;28;19925;-46
2022/03/06 07:10:08;;;;;;;;;;;;;;;;;;5014353;28;20012;-47
2022/03/06 07:12:33;;;;;;;;;;;;;;;;;;5014118;28;19921;-44
2022/03/06 07:14:58;;;;;;;;;;;;;;;;;;5014091;28;20020;-45
2022/03/06 07:17:24;;;;;;;;;;;;;;;;;;5013536;28;20617;-46
2022/03/06 07:19:49;;;;;;;;;;;;;;;;;;5011081;28;19929;-48
2022/03/06 07:22:15;;;;;;;;;;;;;;;;;;5015745;28;19979;-45
2022/03/06 07:24:40;;;;;;;;;;;;;;;;;;5011607;28;19921;-48
2022/03/06 07:27:05;;;;;;;;;;;;;;;;;;5017433;28;20566;-45
2022/03/06 07:29:30;;;;;;;;;;;;;;;;;;5015077;28;19937;-48
2022/03/06 07:31:56;;;;;;;;;;;;;;;;;;5029079;28;19932;-49
2022/03/06 07:34:21;;;;;;;;;;;;;;;;;;5013290;28;20473;-46
2022/03/06 07:36:46;;;;;;;;;;;;;;;;;;5012069;28;20021;-47
2022/03/06 07:39:11;;;;;;;;;;;;;;;;;;5014129;28;19921;-48
2022/03/06 07:41:36;;;;;;;;;;;;;;;;;;5007730;28;20476;-49
2022/03/06 07:44:01;;;;;;;;;;;;;;;;;;5011575;28;20415;-49
2022/03/06 07:46:26;;;;;;;;;;;;;;;;;;5013730;28;19920;-46
2022/03/06 07:48:52;;;;;;;;;;;;;;;;;;5013592;28;20025;-46
2022/03/06 07:51:19;;;;;;;;;;;;;;;;;;5012683;28;20546;-48
2022/03/06 07:53:44;;;;;;;;;;;;;;;;;;5010111;28;19944;-45
2022/03/06 07:56:09;;;;;;;;;;;;;;;;;;5011933;28;19921;-47
2022/03/06 07:58:34;;;;;;;;;;;;;;;;;;5013939;28;20549;-46
2022/03/06 08:00:59;;;;;;;;;;;;;;;;;;5014267;28;19922;-47
2022/03/06 08:03:24;;;;;;;;;;;;;;;;;;5016173;28;19948;-47
2022/03/06 08:05:50;;;;;;;;;;;;;;;;;;5014398;28;20357;-45
2022/03/06 08:08:15;;;;;;;;;;;;;;;;;;5014250;28;19984;-47
2022/03/06 08:10:40;;;;;;;;;;;;;;;;;;5012467;28;20300;-44
2022/03/06 08:13:05;;;;;;;;;;;;;;;;;;5009890;28;19932;-42
2022/03/06 08:15:30;;;;;;;;;;;;;;;;;;5012905;28;19917;-42
2022/03/06 08:17:55;;;;;;;;;;;;;;;;;;5011100;28;20392;-44
2022/03/06 08:20:20;;;;;;;;;;;;;;;;;;5015654;28;20372;-42
2022/03/06 08:22:46;;;;;;;;;;;;;;;;;;5015478;28;19921;-42
2022/03/06 08:25:11;;;;;;;;;;;;;;;;;;5011243;28;20031;-42
2022/03/06 08:27:36;;;;;;;;;;;;;;;;;;5011827;28;21501;-43
2022/03/06 08:30:01;;;;;;;;;;;;;;;;;;5015841;28;19921;-44
2022/03/06 08:32:26;;;;;;;;;;;;;;;;;;5015827;28;20371;-44
2022/03/06 08:34:51;;;;;;;;;;;;;;;;;;5014582;28;19921;-46
2022/03/06 08:37:17;;;;;;;;;;;;;;;;;;5009815;28;19929;-43
2022/03/06 08:39:42;;;;;;;;;;;;;;;;;;5009497;28;20539;-45
2022/03/06 08:42:07;;;;;;;;;;;;;;;;;;5014413;28;19919;-45
2022/03/06 08:44:32;;;;;;;;;;;;;;;;;;5011967;28;19922;-45
2022/03/06 08:46:57;;;;;;;;;;;;;;;;;;5007809;28;20364;-46
2022/03/06 08:49:22;;;;;;;;;;;;;;;;;;5010532;28;20025;-44
2022/03/06 08:51:48;;;;;;;;;;;;;;;;;;5010906;28;20384;-44
2022/03/06 08:54:13;;;;;;;;;;;;;;;;;;5012680;28;19921;-43
2022/03/06 08:56:38;;;;;;;;;;;;;;;;;;5012446;28;20470;-43
2022/03/06 08:59:03;;;;;;;;;;;;;;;;;;5010671;28;20369;-44
2022/03/06 09:01:29;;;;;;;;;;;;;;;;;;5015546;28;19968;-43
2022/03/06 09:03:54;;;;;;;;;;;;;;;;;;5008631;28;19921;-34
2022/03/06 09:06:19;;;;;;;;;;;;;;;;;;5006705;28;20432;-44
2022/03/06 09:08:44;;;;;;;;;;;;;;;;;;5012303;28;19925;-44
2022/03/06 09:11:09;;;;;;;;;;;;;;;;;;5009192;28;19958;-41
2022/03/06 09:13:34;;;;;;;;;;;;;;;;;;5006247;28;19968;-44
2022/03/06 09:16:00;;;;;;;;;;;;;;;;;;5001904;28;19921;-43
2022/03/06 09:18:25;;;;;;;;;;;;;;;;;;5012450;28;20420;-40
2022/03/06 09:20:50;;;;;;;;;;;;;;;;;;5011394;28;19922;-40
2022/03/06 09:23:16;;;;;;;;;;;;;;;;;;5007059;28;20012;-39
2022/03/06 09:25:41;;;;;;;;;;;;;;;;;;5008143;28;19987;-41
2022/03/06 09:28:06;;;;;;;;;;;;;;;;;;5010657;28;19925;-42
2022/03/06 09:30:31;;;;;;;;;;;;;;;;;;5007254;28;19929;-38
2022/03/06 09:32:56;;;;;;;;;;;;;;;;;;5008602;28;19929;-38
2022/03/06 09:35:22;;;;;;;;;;;;;;;;;;5011585;28;20688;-39
2022/03/06 09:37:47;;;;;;;;;;;;;;;;;;5008700;28;19925;-58
2022/03/06 09:40:12;;;;;;;;;;;;;;;;;;5013678;28;20550;-46
2022/03/06 09:42:37;;;;;;;;;;;;;;;;;;5014942;28;20259;-40
2022/03/06 09:45:02;;;;;;;;;;;;;;;;;;5012805;28;19925;-49
2022/03/06 09:47:27;;;;;;;;;;;;;;;;;;5009134;28;19928;-45
2022/03/06 09:49:52;;;;;;;;;;;;;;;;;;5014478;28;19929;-46
2022/03/06 09:52:18;;;;;;;;;;;;;;;;;;5011254;28;19925;-42
2022/03/06 09:54:43;;;;;;;;;;;;;;;;;;5012204;28;20018;-43
2022/03/06 09:57:08;;;;;;;;;;;;;;;;;;5010578;28;19921;-40
2022/03/06 09:59:34;;;;;;;;;;;;;;;;;;5010005;28;20376;-40
2022/03/06 10:01:59;;;;;;;;;;;;;;;;;;5013384;28;19952;-41
2022/03/06 10:04:24;;;;;;;;;;;;;;;;;;4990994;28;19951;-41
2022/03/06 10:06:49;;;;;;;;;;;;;;;;;;5012019;28;19965;-42
2022/03/06 10:09:15;;;;;;;;;;;;;;;;;;5013302;28;20312;-38
2022/03/06 10:11:40;;;;;;;;;;;;;;;;;;5010468;28;20012;-39
2022/03/06 10:14:05;;;;;;;;;;;;;;;;;;5012123;28;20376;-39
2022/03/06 10:16:30;;;;;;;;;;;;;;;;;;5012142;28;19925;-40
2022/03/06 10:18:55;;;;;;;;;;;;;;;;;;5010984;28;20594;-41
2022/03/06 10:21:21;;;;;;;;;;;;;;;;;;5011885;28;19928;-39
2022/03/06 10:23:46;;;;;;;;;;;;;;;;;;5015143;28;19924;-37
2022/03/06 10:26:11;;;;;;;;;;;;;;;;;;5015023;28;20016;-44
2022/03/06 10:28:36;;;;;;;;;;;;;;;;;;5012336;28;20013;-42
2022/03/06 10:31:01;;;;;;;;;;;;;;;;;;5013118;28;19925;-39
2022/03/06 10:33:26;;;;;;;;;;;;;;;;;;5018007;28;19974;-44
2022/03/06 10:35:53;;;;;;;;;;;;;;;;;;5013282;28;19955;-39
2022/03/06 10:38:18;;;;;;;;;;;;;;;;;;5013514;28;19917;-39
2022/03/06 10:40:43;;;;;;;;;;;;;;;;;;5012983;28;20559;-39
2022/03/06 10:43:09;;;;;;;;;;;;;;;;;;5013111;28;21356;-39
2022/03/06 10:45:34;;;;;;;;;;;;;;;;;;5013196;28;19921;-39
2022/03/06 10:47:59;;;;;;;;;;;;;;;;;;5008328;28;19977;-40
2022/03/06 10:50:24;;;;;;;;;;;;;;;;;;5010630;28;20571;-41
2022/03/06 10:52:53;;;;;;;;;;;;;;;;;;5007201;28;19928;-39
2022/03/06 10:55:18;;;;;;;;;;;;;;;;;;5009149;28;19989;-41
2022/03/06 10:57:43;;;;;;;;;;;;;;;;;;5010737;28;19927;-42
2022/03/06 11:00:10;;;;;;;;;;;;;;;;;;5009281;28;20643;-45
2022/03/06 11:02:35;;;;;;;;;;;;;;;;;;5015018;28;19921;-43
2022/03/06 11:05:02;;;;;;;;;;;;;;;;;;5017143;28;19917;-40
2022/03/06 11:07:27;;;;;;;;;;;;;;;;;;5009224;28;19932;-47
2022/03/06 11:09:52;;;;;;;;;;;;;;;;;;5012250;28;19932;-42
2022/03/06 11:12:17;;;;;;;;;;;;;;;;;;5009357;28;19922;-42
2022/03/06 11:14:43;;;;;;;;;;;;;;;;;;5011350;28;20419;-41
2022/03/06 11:17:08;;;;;;;;;;;;;;;;;;5011285;28;20125;-44
2022/03/06 11:19:34;;;;;;;;;;;;;;;;;;5010046;28;19921;-41
2022/03/06 11:21:59;;;;;;;;;;;;;;;;;;5009759;28;19925;-45
2022/03/06 11:24:28;;;;;;;;;;;;;;;;;;5013314;28;19928;-42
2022/03/06 11:26:53;;;;;;;;;;;;;;;;;;5011747;28;19925;-38
2022/03/06 11:29:18;;;;;;;;;;;;;;;;;;5013807;28;20398;-40
2022/03/06 11:31:43;;;;;;;;;;;;;;;;;;5011135;28;19922;-38
2022/03/06 11:34:08;;;;;;;;;;;;;;;;;;5013113;28;19982;-40
2022/03/06 11:36:34;;;;;;;;;;;;;;;;;;5009731;28;19925;-38
2022/03/06 11:38:59;;;;;;;;;;;;;;;;;;5028234;28;20024;-38
2022/03/06 11:41:24;;;;;;;;;;;;;;;;;;5007071;28;19921;-40
2022/03/06 11:43:49;;;;;;;;;;;;;;;;;;5007531;28;19921;-38
2022/03/06 11:46:16;;;;;;;;;;;;;;;;;;5014226;28;19923;-39
2022/03/06 11:48:41;;;;;;;;;;;;;;;;;;5013357;28;19925;-37
2022/03/06 11:51:06;;;;;;;;;;;;;;;;;;5015110;28;19967;-40
2022/03/06 11:53:31;;;;;;;;;;;;;;;;;;5011554;28;20732;-37
2022/03/06 11:55:56;;;;;;;;;;;;;;;;;;5012381;28;20015;-40
2022/03/06 11:58:22;;;;;;;;;;;;;;;;;;5012405;28;19971;-37
2022/03/06 12:00:48;;;;;;;;;;;;;;;;;;5014854;28;20424;-40
2022/03/06 12:03:13;;;;;;;;;;;;;;;;;;5014305;28;20117;-38
2022/03/06 12:05:38;;;;;;;;;;;;;;;;;;5013077;28;20348;-38
2022/03/06 12:08:03;;;;;;;;;;;;;;;;;;5009993;28;20019;-38
2022/03/06 12:10:29;;;;;;;;;;;;;;;;;;5017725;28;19928;-39
2022/03/06 12:12:54;;;;;;;;;;;;;;;;;;5010232;28;19921;-40
2022/03/06 12:15:19;;;;;;;;;;;;;;;;;;5011898;28;20058;-38
2022/03/06 12:17:45;;;;;;;;;;;;;;;;;;5012417;28;20621;-39
2022/03/06 12:20:10;;;;;;;;;;;;;;;;;;5011219;28;19936;-40
2022/03/06 12:22:35;;;;;;;;;;;;;;;;;;5009419;28;19921;-42
2022/03/06 12:25:00;;;;;;;;;;;;;;;;;;5011745;28;20495;-40
2022/03/06 12:27:25;;;;;;;;;;;;;;;;;;5011016;28;19925;-40
2022/03/06 12:29:54;;;;;;;;;;;;;;;;;;5025956;28;19934;-41
2022/03/06 12:32:19;;;;;;;;;;;;;;;;;;5012082;28;20392;-38
2022/03/06 12:34:44;;;;;;;;;;;;;;;;;;5012725;28;19933;-42
2022/03/06 12:37:09;;;;;;;;;;;;;;;;;;5008835;28;19921;-39
2022/03/06 12:39:34;;;;;;;;;;;;;;;;;;5007646;28;20407;-39
2022/03/06 12:42:00;;;;;;;;;;;;;;;;;;5015027;28;20411;-41
2022/03/06 12:44:28;;;;;;;;;;;;;;;;;;5013096;28;20095;-42
2022/03/06 12:46:53;;;;;;;;;;;;;;;;;;5012418;28;19925;-38
2022/03/06 12:49:20;;;;;;;;;;;;;;;;;;5012512;28;19936;-38
2022/03/06 12:51:46;;;;;;;;;;;;;;;;;;5013979;28;19925;-39
2022/03/06 12:54:11;;;;;;;;;;;;;;;;;;5012075;28;20389;-38
2022/03/06 12:56:37;;;;;;;;;;;;;;;;;;5012913;28;19921;-47
2022/03/06 12:59:02;;;;;;;;;;;;;;;;;;5013749;28;19921;-39
2022/03/06 13:01:27;;;;;;;;;;;;;;;;;;5014098;28;20029;-38
2022/03/06 13:03:52;;;;;;;;;;;;;;;;;;5014746;28;19924;-39
2022/03/06 13:06:17;;;;;;;;;;;;;;;;;;5011209;28;19971;-39
2022/03/06 13:08:42;;;;;;;;;;;;;;;;;;5011495;28;20436;-39
2022/03/06 13:11:07;;;;;;;;;;;;;;;;;;5013444;28;19918;-39
2022/03/06 13:13:33;;;;;;;;;;;;;;;;;;5017372;28;19921;-38
2022/03/06 13:15:58;;;;;;;;;;;;;;;;;;5011008;28;20082;-38
2022/03/06 13:18:23;;;;;;;;;;;;;;;;;;5012996;28;20282;-40
2022/03/06 13:20:48;;;;;;;;;;;;;;;;;;5008499;28;19921;-37
2022/03/06 13:23:13;;;;;;;;;;;;;;;;;;5011208;28;19971;-41
2022/03/06 13:25:38;;;;;;;;;;;;;;;;;;5011425;28;20372;-39
2022/03/06 13:28:03;;;;;;;;;;;;;;;;;;5012719;28;19948;-40
2022/03/06 13:30:29;;;;;;;;;;;;;;;;;;5017943;28;19961;-40
2022/03/06 13:32:54;;;;;;;;;;;;;;;;;;5015369;28;19952;-39
2022/03/06 13:35:19;;;;;;;;;;;;;;;;;;5020469;28;20004;-41
2022/03/06 13:37:44;;;;;;;;;;;;;;;;;;5018964;28;19920;-38
2022/03/06 13:40:09;;;;;;;;;;;;;;;;;;5019986;28;20000;-43
2022/03/06 13:42:35;;;;;;;;;;;;;;;;;;5018297;28;20586;-38
2022/03/06 13:45:00;;;;;;;;;;;;;;;;;;5018045;28;19917;-43
2022/03/06 13:47:25;;;;;;;;;;;;;;;;;;5019530;28;20667;-37
2022/03/06 13:49:50;;;;;;;;;;;;;;;;;;5019107;28;19937;-38
2022/03/06 13:52:15;;;;;;;;;;;;;;;;;;5017461;28;20415;-38
2022/03/06 13:54:40;;;;;;;;;;;;;;;;;;5018531;28;20008;-38
2022/03/06 13:57:06;;;;;;;;;;;;;;;;;;5018958;28;19925;-39
2022/03/06 13:59:36;;;;;;;;;;;;;;;;;;5015361;28;19953;-39
2022/03/06 14:02:01;;;;;;;;;;;;;;;;;;5016128;28;19920;-37
2022/03/06 14:04:26;;;;;;;;;;;;;;;;;;5017990;28;19920;-40
2022/03/06 14:06:51;;;;;;;;;;;;;;;;;;5014418;28;21497;-38
2022/03/06 14:09:17;;;;;;;;;;;;;;;;;;5015591;28;19976;-41
2022/03/06 14:11:42;;;;;;;;;;;;;;;;;;5013417;28;19972;-38
2022/03/06 14:14:07;;;;;;;;;;;;;;;;;;5016857;28;19928;-41
2022/03/06 14:16:32;;;;;;;;;;;;;;;;;;5016808;28;19918;-42
2022/03/06 14:18:58;;;;;;;;;;;;;;;;;;5018302;28;20484;-41
2022/03/06 14:21:23;;;;;;;;;;;;;;;;;;5015849;28;20432;-39
2022/03/06 14:23:48;;;;;;;;;;;;;;;;;;5019458;28;19923;-37
2022/03/06 14:26:14;;;;;;;;;;;;;;;;;;5019456;28;19968;-38
2022/03/06 14:28:39;;;;;;;;;;;;;;;;;;5018341;28;19925;-40
2022/03/06 14:31:04;;;;;;;;;;;;;;;;;;5014977;28;20381;-37
2022/03/06 14:33:32;;;;;;;;;;;;;;;;;;5019348;28;19921;-37
2022/03/06 14:35:57;;;;;;;;;;;;;;;;;;5016503;28;19925;-40
2022/03/06 14:38:22;;;;;;;;;;;;;;;;;;5018778;28;19917;-42
2022/03/06 14:40:47;;;;;;;;;;;;;;;;;;5017335;28;19928;-38
2022/03/06 14:43:12;;;;;;;;;;;;;;;;;;5017414;28;19917;-38
2022/03/06 14:45:38;;;;;;;;;;;;;;;;;;5003707;28;20388;-39
2022/03/06 14:48:03;;;;;;;;;;;;;;;;;;5011797;28;19930;-38
2022/03/06 14:50:28;;;;;;;;;;;;;;;;;;5015861;28;20679;-42
2022/03/06 14:52:53;;;;;;;;;;;;;;;;;;5017785;28;19929;-38
2022/03/06 14:55:18;;;;;;;;;;;;;;;;;;5013715;28;20396;-40
2022/03/06 14:57:43;;;;;;;;;;;;;;;;;;5013747;28;19921;-41
2022/03/06 15:00:09;;;;;;;;;;;;;;;;;;5017993;28;19941;-38
2022/03/06 15:02:34;;;;;;;;;;;;;;;;;;5014084;28;19920;-38
2022/03/06 15:04:59;;;;;;;;;;;;;;;;;;5016874;28;19923;-42
2022/03/06 15:07:24;;;;;;;;;;;;;;;;;;5020020;28;20598;-38
2022/03/06 15:09:49;;;;;;;;;;;;;;;;;;5015028;28;19921;-38
2022/03/06 15:12:15;;;;;;;;;;;;;;;;;;5017593;28;20008;-38
2022/03/06 15:14:40;;;;;;;;;;;;;;;;;;5017914;28;20352;-39
2022/03/06 15:17:05;;;;;;;;;;;;;;;;;;5019558;28;19964;-41
2022/03/06 15:19:30;;;;;;;;;;;;;;;;;;5016238;28;20016;-40
2022/03/06 15:21:55;;;;;;;;;;;;;;;;;;5015574;28;20320;-38
2022/03/06 15:24:20;;;;;;;;;;;;;;;;;;5018628;28;19921;-38
2022/03/06 15:26:45;;;;;;;;;;;;;;;;;;5017310;28;19968;-42
2022/03/06 15:29:11;;;;;;;;;;;;;;;;;;5015785;28;20385;-38
2022/03/06 15:31:36;;;;;;;;;;;;;;;;;;5015011;28;19922;-38
2022/03/06 15:34:01;;;;;;;;;;;;;;;;;;5015860;28;20016;-39
2022/03/06 15:36:26;;;;;;;;;;;;;;;;;;5021262;28;19939;-38
2022/03/06 15:38:51;;;;;;;;;;;;;;;;;;5015129;28;20372;-37
2022/03/06 15:41:17;;;;;;;;;;;;;;;;;;5015134;28;19921;-38
2022/03/06 15:43:42;;;;;;;;;;;;;;;;;;5010741;28;20376;-38
2022/03/06 15:46:07;;;;;;;;;;;;;;;;;;5017311;28;19928;-38
2022/03/06 15:48:32;;;;;;;;;;;;;;;;;;5016547;28;19922;-37
2022/03/06 15:50:57;;;;;;;;;;;;;;;;;;5015841;28;20600;-38
2022/03/06 15:53:22;;;;;;;;;;;;;;;;;;5016797;28;19968;-40
2022/03/06 15:55:48;;;;;;;;;;;;;;;;;;5012887;28;20369;-42
2022/03/06 15:58:13;;;;;;;;;;;;;;;;;;5014149;28;19973;-39
2022/03/06 16:00:38;;;;;;;;;;;;;;;;;;5012600;28;19917;-38
2022/03/06 16:03:03;;;;;;;;;;;;;;;;;;5015373;28;19917;-38
2022/03/06 16:05:28;;;;;;;;;;;;;;;;;;5016025;28;19932;-40
2022/03/06 16:07:54;;;;;;;;;;;;;;;;;;5014927;28;19980;-39
2022/03/06 16:10:19;;;;;;;;;;;;;;;;;;5013294;28;20473;-38
2022/03/06 16:12:44;;;;;;;;;;;;;;;;;;5015213;28;20389;-38
2022/03/06 16:15:09;;;;;;;;;;;;;;;;;;5013205;28;19932;-38
2022/03/06 16:17:34;;;;;;;;;;;;;;;;;;5011730;28;19917;-38
2022/03/06 16:19:59;;;;;;;;;;;;;;;;;;5011480;28;19921;-38
2022/03/06 16:22:24;;;;;;;;;;;;;;;;;;5018256;28;20467;-38
2022/03/06 16:24:51;;;;;;;;;;;;;;;;;;5032292;28;19928;-38
2022/03/06 16:27:16;;;;;;;;;;;;;;;;;;5014505;28;20298;-41
2022/03/06 16:29:43;;;;;;;;;;;;;;;;;;5016716;28;19934;-39
2022/03/06 16:32:08;;;;;;;;;;;;;;;;;;5012520;28;20351;-39